createdAt,value
2023-06-11T00:00:10.747Z,2.90
2023-06-11T00:02:40.623Z,2.70
2023-06-11T00:05:10.475Z,2.90
2023-06-11T00:07:39.808Z,4.13
2023-06-11T00:10:08.282Z,2.70
2023-06-11T00:12:36.113Z,2.43
2023-06-11T00:15:06.063Z,2.70
2023-06-11T00:17:34.410Z,2.47
2023-06-11T00:20:10.705Z,2.53
2023-06-11T00:22:39.150Z,2.67
2023-06-11T00:25:08.058Z,2.63
2023-06-11T00:27:36.462Z,2.90
2023-06-11T00:30:07.528Z,2.93
2023-06-11T00:32:36.037Z,3.90
2023-06-11T00:37:36.793Z,2.53
2023-06-11T00:40:04.987Z,3.37
2023-06-11T00:42:34.590Z,2.80
2023-06-11T00:45:04.727Z,3.23
2023-06-11T00:47:35.153Z,3.33
2023-06-11T00:50:05.273Z,2.90
2023-06-11T00:52:33.158Z,3.80
2023-06-11T00:55:04.071Z,2.80
2023-06-11T00:57:33.004Z,2.57
2023-06-11T01:00:01.770Z,2.60
2023-06-11T01:02:37.838Z,2.50
2023-06-11T01:05:08.921Z,2.60
2023-06-11T01:07:38.294Z,2.87
2023-06-11T01:10:07.826Z,2.63
2023-06-11T01:12:37.171Z,2.40
2023-06-11T01:15:05.651Z,2.60
2023-06-11T01:17:42.432Z,2.97
2023-06-11T01:20:15.382Z,2.70
2023-06-11T01:23:17.417Z,2.53
2023-06-11T01:25:52.614Z,3.13
2023-06-11T01:28:28.088Z,3.13
2023-06-11T01:30:59.169Z,3.30
2023-06-11T01:33:28.455Z,3.03
2023-06-11T01:35:59.508Z,2.87
2023-06-11T01:38:35.968Z,3.33
2023-06-11T01:41:04.561Z,2.80
2023-06-11T01:43:34.116Z,3.40
2023-06-11T01:46:01.969Z,3.80
2023-06-11T01:48:29.667Z,3.50
2023-06-11T01:50:57.285Z,3.20
2023-06-11T01:53:25.596Z,3.83
2023-06-11T01:55:53.478Z,2.93
2023-06-11T01:58:21.152Z,2.90
2023-06-11T02:00:50.418Z,2.87
2023-06-11T02:03:18.271Z,2.80
2023-06-11T02:05:46.405Z,2.90
2023-06-11T02:08:14.251Z,2.70
2023-06-11T02:10:41.938Z,3.00
2023-06-11T02:13:09.589Z,2.90
2023-06-11T02:15:37.289Z,2.60
2023-06-11T02:18:06.938Z,2.70
2023-06-11T02:20:34.681Z,2.70
2023-06-11T02:23:03.278Z,2.30
2023-06-11T02:25:30.937Z,2.50
2023-06-11T02:27:58.568Z,2.53
2023-06-11T02:30:27.552Z,2.50
2023-06-11T02:32:55.283Z,2.70
2023-06-11T02:35:24.583Z,2.60
2023-06-11T02:37:52.290Z,2.60
2023-06-11T02:40:20.092Z,2.93
2023-06-11T02:42:47.921Z,2.70
2023-06-11T02:45:15.565Z,2.60
2023-06-11T02:47:43.286Z,2.60
2023-06-11T02:50:11.529Z,2.80
2023-06-11T02:52:40.846Z,2.83
2023-06-11T02:55:09.464Z,2.77
2023-06-11T02:57:37.735Z,2.53
2023-06-11T03:00:06.905Z,2.80
2023-06-11T03:02:34.957Z,2.30
2023-06-11T03:05:02.705Z,3.17
2023-06-11T03:07:31.504Z,3.07
2023-06-11T03:10:03.290Z,2.50
2023-06-11T03:12:33.431Z,2.50
2023-06-11T03:15:01.783Z,2.63
2023-06-11T03:17:29.488Z,2.90
2023-06-11T03:19:57.572Z,2.60
2023-06-11T03:22:25.585Z,2.80
2023-06-11T03:24:53.258Z,2.70
2023-06-11T03:27:31.179Z,2.83
2023-06-11T03:29:59.111Z,3.20
2023-06-11T03:32:27.093Z,2.90
2023-06-11T03:34:54.852Z,2.70
2023-06-11T03:37:24.748Z,2.83
2023-06-11T03:39:56.600Z,2.60
2023-06-11T03:42:24.856Z,2.90
2023-06-11T03:44:56.818Z,2.90
2023-06-11T03:47:26.751Z,2.73
2023-06-11T03:49:54.607Z,3.23
2023-06-11T03:52:22.353Z,2.70
2023-06-11T03:54:50.303Z,2.80
2023-06-11T03:57:19.618Z,3.00
2023-06-11T03:59:47.729Z,2.33
2023-06-11T04:02:16.909Z,3.40
2023-06-11T04:04:44.991Z,3.20
2023-06-11T04:07:12.799Z,3.37
2023-06-11T04:09:41.453Z,3.33
2023-06-11T04:12:10.178Z,2.67
2023-06-11T04:14:38.292Z,2.90
2023-06-11T04:17:07.062Z,2.50
2023-06-11T04:19:36.532Z,2.53
2023-06-11T04:22:04.704Z,2.80
2023-06-11T04:24:34.419Z,2.60
2023-06-11T04:27:02.518Z,3.80
2023-06-11T04:29:30.816Z,2.83
2023-06-11T04:32:04.347Z,3.30
2023-06-11T04:34:35.069Z,3.07
2023-06-11T04:37:05.987Z,3.00
2023-06-11T04:39:34.176Z,2.97
2023-06-11T04:42:06.618Z,2.97
2023-06-11T04:44:37.637Z,2.60
2023-06-11T04:47:07.845Z,2.90
2023-06-11T04:49:38.459Z,2.50
2023-06-11T04:52:09.573Z,3.33
2023-06-11T04:54:37.381Z,3.20
2023-06-11T04:57:06.935Z,2.80
2023-06-11T04:59:34.938Z,3.27
2023-06-11T05:02:02.781Z,3.07
2023-06-11T05:04:30.481Z,3.30
2023-06-11T05:07:01.288Z,3.03
2023-06-11T05:09:31.365Z,3.33
2023-06-11T05:11:59.644Z,2.77
2023-06-11T05:14:28.276Z,3.13
2023-06-11T05:16:56.714Z,3.00
2023-06-11T05:19:24.583Z,2.90
2023-06-11T05:21:52.300Z,4.73
2023-06-11T05:24:23.329Z,2.87
2023-06-11T05:26:57.917Z,3.20
2023-06-11T05:29:27.547Z,3.03
2023-06-11T05:31:57.610Z,3.97
2023-06-11T05:34:27.365Z,2.97
2023-06-11T05:36:58.150Z,3.50
2023-06-11T05:39:25.979Z,3.03
2023-06-11T05:41:53.790Z,2.80
2023-06-11T05:44:24.971Z,3.13
2023-06-11T05:46:52.894Z,3.47
2023-06-11T05:49:20.986Z,3.10
2023-06-11T05:51:49.258Z,3.13
2023-06-11T05:54:18.071Z,4.27
2023-06-11T05:56:46.988Z,2.93
2023-06-11T05:59:15.834Z,3.80
2023-06-11T06:01:47.157Z,3.13
2023-06-11T06:04:18.139Z,3.00
2023-06-11T06:06:46.641Z,2.63
2023-06-11T06:09:15.539Z,2.90
2023-06-11T06:11:44.544Z,3.07
2023-06-11T06:14:12.599Z,3.50
2023-06-11T06:16:41.430Z,3.27
2023-06-11T06:19:15.040Z,3.27
2023-06-11T06:21:42.756Z,3.27
2023-06-11T06:24:12.434Z,3.23
2023-06-11T06:26:42.177Z,3.50
2023-06-11T06:29:10.589Z,4.40
2023-06-11T06:31:39.312Z,3.47
2023-06-11T06:34:08.380Z,3.40
2023-06-11T06:36:38.420Z,3.40
2023-06-11T06:39:06.782Z,3.03
2023-06-11T06:41:34.505Z,2.87
2023-06-11T06:44:09.061Z,3.17
2023-06-11T06:46:36.766Z,2.87
2023-06-11T06:49:04.811Z,2.50
2023-06-11T06:51:33.916Z,3.60
2023-06-11T06:54:03.640Z,4.53
2023-06-11T06:56:31.374Z,4.53
2023-06-11T06:58:59.082Z,3.90
2023-06-11T07:01:28.368Z,3.13
2023-06-11T07:03:56.534Z,3.97
2023-06-11T07:06:26.098Z,3.10
2023-06-11T07:08:54.165Z,3.20
2023-06-11T07:11:25.127Z,3.10
2023-06-11T07:13:53.464Z,3.37
2023-06-11T07:16:21.445Z,3.03
2023-06-11T07:18:54.331Z,3.67
2023-06-11T07:21:22.066Z,2.93
2023-06-11T07:23:49.727Z,2.50
2023-06-11T07:26:19.246Z,2.50
2023-06-11T07:28:49.151Z,2.47
2023-06-11T07:31:17.948Z,2.90
2023-06-11T07:33:46.010Z,2.27
2023-06-11T07:36:14.283Z,2.20
2023-06-11T07:38:43.799Z,2.20
2023-06-11T07:41:11.724Z,2.60
2023-06-11T07:43:39.514Z,2.40
2023-06-11T07:46:09.642Z,2.20
2023-06-11T07:48:42.313Z,2.60
2023-06-11T07:51:10.315Z,2.10
2023-06-11T07:53:39.186Z,2.37
2023-06-11T07:56:07.981Z,2.20
2023-06-11T07:58:37.916Z,2.30
2023-06-11T08:01:05.555Z,3.00
2023-06-11T08:03:38.717Z,2.40
2023-06-11T08:06:06.571Z,3.60
2023-06-11T08:08:34.258Z,2.40
2023-06-11T08:11:02.035Z,2.27
2023-06-11T08:13:29.693Z,2.30
2023-06-11T08:15:57.351Z,2.43
2023-06-11T08:18:25.023Z,2.70
2023-06-11T08:20:54.760Z,2.27
2023-06-11T08:23:22.383Z,2.30
2023-06-11T08:25:50.008Z,2.37
2023-06-11T08:28:20.683Z,2.00
2023-06-11T08:30:48.392Z,2.00
2023-06-11T08:33:16.043Z,2.30
2023-06-11T08:35:43.937Z,2.73
2023-06-11T08:38:13.024Z,3.00
2023-06-11T08:40:42.012Z,3.27
2023-06-11T08:43:09.830Z,3.20
2023-06-11T08:45:37.994Z,3.33
2023-06-11T08:48:07.222Z,2.40
2023-06-11T08:50:34.885Z,3.43
2023-06-11T08:53:06.039Z,2.60
2023-06-11T08:55:35.258Z,2.43
2023-06-11T08:58:03.180Z,2.50
2023-06-11T09:00:30.932Z,2.75
2023-06-11T09:02:58.875Z,2.73
2023-06-11T09:05:27.118Z,3.00
2023-06-11T09:07:56.737Z,3.03
2023-06-11T09:10:24.460Z,2.13
2023-06-11T09:12:56.038Z,2.90
2023-06-11T09:15:26.454Z,3.78
2023-06-11T09:17:55.512Z,3.50
2023-06-11T09:20:24.459Z,3.17
2023-06-11T09:22:54.018Z,2.55
2023-06-11T09:25:21.655Z,3.35
2023-06-11T09:27:49.935Z,2.35
2023-06-11T09:30:20.784Z,2.40
2023-06-11T09:32:50.730Z,2.78
2023-06-11T09:35:21.836Z,2.67
2023-06-11T09:37:52.066Z,3.97
2023-06-11T09:40:24.326Z,2.10
2023-06-11T09:42:52.936Z,4.40
2023-06-11T09:45:24.779Z,2.83
2023-06-11T09:47:53.060Z,2.58
2023-06-11T09:50:23.241Z,2.60
2023-06-11T09:52:52.458Z,2.50
2023-06-11T09:55:22.685Z,2.50
2023-06-11T09:57:53.237Z,3.33
2023-06-11T10:00:23.176Z,3.50
2023-06-11T10:02:51.332Z,3.25
2023-06-11T10:05:19.183Z,2.60
2023-06-11T10:07:51.008Z,2.75
2023-06-11T10:10:21.947Z,2.58
2023-06-11T10:12:51.205Z,2.47
2023-06-11T10:15:20.802Z,2.65
2023-06-11T10:17:52.073Z,2.20
2023-06-11T10:20:28.540Z,2.33
2023-06-11T10:23:11.025Z,2.53
2023-06-11T10:25:43.031Z,2.00
2023-06-11T10:28:11.433Z,3.00
2023-06-11T10:30:39.449Z,2.22
2023-06-11T10:33:08.673Z,3.95
2023-06-11T10:35:37.945Z,1.92
2023-06-11T10:38:07.174Z,2.28
2023-06-11T10:40:36.424Z,2.20
2023-06-11T10:43:06.648Z,3.70
2023-06-11T10:45:36.944Z,2.10
2023-06-11T10:48:06.050Z,2.58
2023-06-11T10:50:36.405Z,3.67
2023-06-11T10:53:09.930Z,2.60
2023-06-11T10:55:37.971Z,2.53
2023-06-11T10:58:05.944Z,2.20
2023-06-11T11:00:39.330Z,2.08
2023-06-11T11:03:07.820Z,2.15
2023-06-11T11:05:42.682Z,2.35
2023-06-11T11:08:10.533Z,2.50
2023-06-11T11:10:38.305Z,3.25
2023-06-11T11:13:06.057Z,2.08
2023-06-11T11:15:33.818Z,1.90
2023-06-11T11:18:01.670Z,2.28
2023-06-11T11:20:30.080Z,1.85
2023-06-11T11:22:59.647Z,2.60
2023-06-11T11:25:30.815Z,3.40
2023-06-11T11:27:58.899Z,2.38
2023-06-11T11:30:29.462Z,2.60
2023-06-11T11:32:58.211Z,2.58
2023-06-11T11:35:27.661Z,2.35
2023-06-11T11:37:55.893Z,2.22
2023-06-11T11:40:25.303Z,2.50
2023-06-11T11:42:54.207Z,2.03
2023-06-11T11:45:23.805Z,2.28
2023-06-11T11:47:53.565Z,1.92
2023-06-11T11:50:24.095Z,2.08
2023-06-11T11:53:05.533Z,1.70
2023-06-11T11:55:44.838Z,2.00
2023-06-11T11:58:19.900Z,2.40
2023-06-11T12:00:50.215Z,2.55
2023-06-11T12:03:20.618Z,2.33
2023-06-11T12:05:58.415Z,2.35
2023-06-11T12:08:26.549Z,2.00
2023-06-11T12:10:55.774Z,2.08
2023-06-11T12:13:23.625Z,2.20
2023-06-11T12:15:51.364Z,1.90
2023-06-11T12:18:19.633Z,1.70
2023-06-11T12:20:47.768Z,1.60
2023-06-11T12:23:15.585Z,2.08
2023-06-11T12:25:44.078Z,1.70
2023-06-11T12:28:13.097Z,1.38
2023-06-11T12:30:42.738Z,1.60
2023-06-11T12:33:11.648Z,1.90
2023-06-11T12:35:39.529Z,1.45
2023-06-11T12:38:07.695Z,1.70
2023-06-11T12:40:35.476Z,2.10
2023-06-11T12:43:03.310Z,1.95
2023-06-11T12:45:34.114Z,2.03
2023-06-11T12:48:02.065Z,2.28
2023-06-11T12:50:29.809Z,1.80
2023-06-11T12:52:57.996Z,2.90
2023-06-11T12:55:26.466Z,2.47
2023-06-11T12:57:54.304Z,2.97
2023-06-11T13:00:23.323Z,2.38
2023-06-11T13:02:52.831Z,2.10
2023-06-11T13:05:22.557Z,1.80
2023-06-11T13:07:50.863Z,2.30
2023-06-11T13:10:19.641Z,2.50
2023-06-11T13:12:47.341Z,2.28
2023-06-11T13:15:15.012Z,2.10
2023-06-11T13:17:42.702Z,2.25
2023-06-11T13:20:12.837Z,2.20
2023-06-11T13:22:40.833Z,1.73
2023-06-11T13:25:09.865Z,1.70
2023-06-11T13:27:37.633Z,1.90
2023-06-11T13:30:10.632Z,1.60
2023-06-11T13:32:39.303Z,1.67
2023-06-11T13:35:07.864Z,2.30
2023-06-11T13:37:37.039Z,2.17
2023-06-11T13:40:05.425Z,4.38
2023-06-11T13:42:33.104Z,2.50
2023-06-11T13:45:04.409Z,2.63
2023-06-11T13:47:32.112Z,2.28
2023-06-11T13:49:59.801Z,2.30
2023-06-11T13:52:27.474Z,3.03
2023-06-11T13:54:56.460Z,2.88
2023-06-11T13:57:28.738Z,3.05
2023-06-11T13:59:56.676Z,3.10
2023-06-11T14:02:24.812Z,2.78
2023-06-11T14:04:54.232Z,3.70
2023-06-11T14:07:21.956Z,2.60
2023-06-11T14:09:49.914Z,2.72
2023-06-11T14:12:18.958Z,2.70
2023-06-11T14:14:46.814Z,3.10
2023-06-11T14:17:14.433Z,2.75
2023-06-11T14:19:42.170Z,2.58
2023-06-11T14:22:09.815Z,2.40
2023-06-11T14:24:37.600Z,2.20
2023-06-11T14:27:06.022Z,2.22
2023-06-11T14:29:35.010Z,2.50
2023-06-11T14:32:03.827Z,3.65
2023-06-11T14:34:32.102Z,2.75
2023-06-11T14:36:59.774Z,3.97
2023-06-11T14:39:27.457Z,2.70
2023-06-11T14:41:55.858Z,3.15
2023-06-11T14:44:23.590Z,3.22
2023-06-11T14:46:53.515Z,2.47
2023-06-11T14:49:22.035Z,3.20
2023-06-11T14:51:50.112Z,2.80
2023-06-11T14:54:17.947Z,3.05
2023-06-11T14:56:45.719Z,3.35
2023-06-11T14:59:13.586Z,3.17
2023-06-11T15:01:42.694Z,3.10
2023-06-11T15:04:12.705Z,3.33
2023-06-11T15:06:40.733Z,4.60
2023-06-11T15:09:08.754Z,3.50
2023-06-11T15:11:36.666Z,5.63
2023-06-11T15:14:04.732Z,3.80
2023-06-11T15:16:32.469Z,4.10
2023-06-11T15:19:00.157Z,3.95
2023-06-11T15:21:29.254Z,4.32
2023-06-11T15:23:57.044Z,4.93
2023-06-11T15:26:24.742Z,3.80
2023-06-11T15:28:52.443Z,3.80
2023-06-11T15:31:20.211Z,6.13
2023-06-11T15:33:47.869Z,4.32
2023-06-11T15:36:15.462Z,6.05
2023-06-11T15:38:44.479Z,5.25
2023-06-11T15:41:15.178Z,4.18
2023-06-11T15:43:43.880Z,4.32
2023-06-11T15:46:11.577Z,4.00
2023-06-11T15:48:41.265Z,4.50
2023-06-11T15:51:09.078Z,3.58
2023-06-11T15:53:36.718Z,4.07
2023-06-11T15:56:06.221Z,4.07
2023-06-11T15:58:33.890Z,3.50
2023-06-11T16:01:01.647Z,3.67
2023-06-11T16:03:29.576Z,3.60
2023-06-11T16:05:57.382Z,3.80
2023-06-11T16:08:25.020Z,3.45
2023-06-11T16:10:52.728Z,2.78
2023-06-11T16:13:21.720Z,2.80
2023-06-11T16:15:49.718Z,2.67
2023-06-11T16:18:17.433Z,2.92
2023-06-11T16:20:45.120Z,2.83
2023-06-11T16:23:12.829Z,2.63
2023-06-11T16:25:40.514Z,2.60
2023-06-11T16:28:08.186Z,2.30
2023-06-11T16:30:37.382Z,2.75
2023-06-11T16:33:05.325Z,3.58
2023-06-11T16:35:33.296Z,3.42
2023-06-11T16:38:00.994Z,2.88
2023-06-11T16:40:28.661Z,2.50
2023-06-11T16:42:56.308Z,2.70
2023-06-11T16:45:24.139Z,2.50
2023-06-11T16:47:53.244Z,2.80
2023-06-11T16:50:20.983Z,3.08
2023-06-11T16:52:52.748Z,2.85
2023-06-11T16:55:22.317Z,2.58
2023-06-11T16:57:50.808Z,2.97
2023-06-11T17:00:20.408Z,3.00
2023-06-11T17:02:50.206Z,2.75
2023-06-11T17:05:19.770Z,2.75
2023-06-11T17:07:51.129Z,3.03
2023-06-11T17:10:18.880Z,2.97
2023-06-11T17:12:47.328Z,2.72
2023-06-11T17:15:17.182Z,2.50
2023-06-11T17:17:45.722Z,2.50
2023-06-11T17:20:14.853Z,2.70
2023-06-11T17:22:47.058Z,3.00
2023-06-11T17:25:15.332Z,2.78
2023-06-11T17:27:43.095Z,3.00
2023-06-11T17:30:11.494Z,2.88
2023-06-11T17:32:39.423Z,2.90
2023-06-11T17:35:08.161Z,2.95
2023-06-11T17:37:36.001Z,2.45
2023-06-11T17:40:05.698Z,2.70
2023-06-11T17:42:33.550Z,2.90
2023-06-11T17:45:01.262Z,2.90
2023-06-11T17:47:29.036Z,2.85
2023-06-11T17:49:56.849Z,2.75
2023-06-11T17:52:24.598Z,3.28
2023-06-11T17:54:52.635Z,4.22
2023-06-11T17:57:22.088Z,4.40
2023-06-11T17:59:49.864Z,4.35
2023-06-11T18:02:17.547Z,4.65
2023-06-11T18:04:45.162Z,4.47
2023-06-11T18:07:12.804Z,4.78
2023-06-11T18:09:40.605Z,4.70
2023-06-11T18:12:09.422Z,4.47
2023-06-11T18:14:38.403Z,4.00
2023-06-11T18:17:06.836Z,3.53
2023-06-11T18:19:35.616Z,3.80
2023-06-11T18:22:03.296Z,3.55
2023-06-11T18:24:32.255Z,3.00
2023-06-11T18:27:00.004Z,3.17
2023-06-11T18:29:28.593Z,3.10
2023-06-11T18:31:59.030Z,3.47
2023-06-11T18:34:26.805Z,3.08
2023-06-11T18:36:54.489Z,3.30
2023-06-11T18:39:22.223Z,2.83
2023-06-11T18:41:49.901Z,2.67
2023-06-11T18:44:18.633Z,2.70
2023-06-11T18:46:46.304Z,2.70
2023-06-11T18:49:15.446Z,2.50
2023-06-11T18:51:43.071Z,2.55
2023-06-11T18:54:11.421Z,2.38
2023-06-11T18:56:39.095Z,2.83
2023-06-11T18:59:07.681Z,2.35
2023-06-11T19:01:35.473Z,2.25
2023-06-11T19:04:03.175Z,2.55
2023-06-11T19:06:32.232Z,2.58
2023-06-11T19:08:59.880Z,2.50
2023-06-11T19:11:27.721Z,2.92
2023-06-11T19:13:55.651Z,2.70
2023-06-11T19:16:23.335Z,2.45
2023-06-11T19:18:51.034Z,2.90
2023-06-11T19:21:23.980Z,2.88
2023-06-11T19:23:52.997Z,2.80
2023-06-11T19:26:21.253Z,2.85
2023-06-11T19:28:50.234Z,2.60
2023-06-11T19:31:17.959Z,2.70
2023-06-11T19:33:46.454Z,2.88
2023-06-11T19:36:14.148Z,3.03
2023-06-11T19:38:41.831Z,2.88
2023-06-11T19:41:13.094Z,2.83
2023-06-11T19:43:42.629Z,3.00
2023-06-11T19:46:10.694Z,2.90
2023-06-11T19:48:38.388Z,2.80
2023-06-11T19:51:06.044Z,5.07
2023-06-11T19:53:33.720Z,2.70
2023-06-11T19:56:01.336Z,2.70
2023-06-11T19:58:30.341Z,2.90
2023-06-11T20:00:58.087Z,2.92
2023-06-11T20:03:25.758Z,2.50
2023-06-11T20:05:53.515Z,2.80
2023-06-11T20:08:21.377Z,2.80
2023-06-11T20:10:49.063Z,2.92
2023-06-11T20:13:16.804Z,2.97
2023-06-11T20:15:46.016Z,2.80
2023-06-11T20:18:13.646Z,2.63
2023-06-11T20:20:41.742Z,2.70
2023-06-11T20:23:10.006Z,2.83
2023-06-11T20:25:37.769Z,2.78
2023-06-11T20:28:05.811Z,2.65
2023-06-11T20:30:33.444Z,2.80
2023-06-11T20:33:02.563Z,2.72
2023-06-11T20:35:30.586Z,2.35
2023-06-11T20:37:58.269Z,2.78
2023-06-11T20:40:26.087Z,3.05
2023-06-11T20:42:53.777Z,2.80
2023-06-11T20:45:21.442Z,2.95
2023-06-11T20:47:49.321Z,2.75
2023-06-11T20:50:18.378Z,2.72
2023-06-11T20:52:46.096Z,2.50
2023-06-11T20:55:13.767Z,2.47
2023-06-11T20:57:41.517Z,3.00
2023-06-11T21:00:10.576Z,2.78
2023-06-11T21:02:38.581Z,2.92
2023-06-11T21:05:06.422Z,2.92
2023-06-11T21:07:36.052Z,2.70
2023-06-11T21:10:03.748Z,2.30
2023-06-11T21:12:31.655Z,2.85
2023-06-11T21:15:00.242Z,2.90
2023-06-11T21:17:28.744Z,2.97
2023-06-11T21:19:56.423Z,3.03
2023-06-11T21:22:24.099Z,2.70
2023-06-11T21:24:53.100Z,3.08
2023-06-11T21:27:20.808Z,3.08
2023-06-11T21:29:48.514Z,3.92
2023-06-11T21:32:16.185Z,3.10
2023-06-11T21:34:44.108Z,3.45
2023-06-11T21:37:11.817Z,2.90
2023-06-11T21:39:39.445Z,2.92
2023-06-11T21:42:09.849Z,3.40
2023-06-11T21:44:38.413Z,3.20
2023-06-11T21:47:06.898Z,3.60
2023-06-11T21:49:34.586Z,3.28
2023-06-11T21:52:03.033Z,3.47
2023-06-11T21:54:30.812Z,3.35
2023-06-11T21:56:58.946Z,3.70
2023-06-11T21:59:27.920Z,3.20
2023-06-11T22:01:55.572Z,2.85
2023-06-11T22:04:23.203Z,3.30
2023-06-11T22:06:53.921Z,3.70
2023-06-11T22:09:23.041Z,3.63
2023-06-11T22:11:50.975Z,3.38
2023-06-11T22:14:18.621Z,3.67
2023-06-11T22:16:48.459Z,4.05
2023-06-11T22:19:16.535Z,4.10
2023-06-11T22:21:45.023Z,4.40
2023-06-11T22:24:12.803Z,4.35
2023-06-11T22:26:41.983Z,4.68
2023-06-11T22:29:09.694Z,4.65
2023-06-11T22:31:40.721Z,4.38
2023-06-11T22:34:10.313Z,4.20
2023-06-11T22:36:38.402Z,4.75
2023-06-11T22:39:06.214Z,4.55
2023-06-11T22:41:33.900Z,5.15
2023-06-11T22:44:01.725Z,4.00
2023-06-11T22:46:29.496Z,4.00
2023-06-11T22:48:57.910Z,3.83
2023-06-11T22:51:26.956Z,4.15
2023-06-11T22:53:54.645Z,4.20
2023-06-11T22:56:23.856Z,3.72
2023-06-11T22:58:52.453Z,3.97
2023-06-11T23:01:21.850Z,4.20
2023-06-11T23:03:49.800Z,4.15
2023-06-11T23:06:17.502Z,4.20
2023-06-11T23:08:46.740Z,4.00
2023-06-11T23:11:14.813Z,4.30
2023-06-11T23:13:42.524Z,4.03
2023-06-11T23:16:11.413Z,5.00
2023-06-11T23:18:39.206Z,4.40
2023-06-11T23:21:07.430Z,4.13
2023-06-11T23:23:38.347Z,3.95
2023-06-11T23:26:10.602Z,4.00
2023-06-11T23:28:38.630Z,4.20
2023-06-11T23:31:07.103Z,3.90
2023-06-11T23:33:34.816Z,3.30
2023-06-11T23:36:02.593Z,3.67
2023-06-11T23:38:30.373Z,4.32
2023-06-11T23:40:58.009Z,4.77
2023-06-11T23:43:26.989Z,4.68
2023-06-11T23:45:54.671Z,4.73
2023-06-11T23:48:22.367Z,4.43
2023-06-11T23:50:50.046Z,4.10
2023-06-11T23:53:17.704Z,4.30
2023-06-11T23:55:45.325Z,4.20
2023-06-11T23:58:18.869Z,4.13
